sensor_id;sensor_type;location;lat;lon;timestamp;temperature;humidity
68609;SHT31;55581;46.718;7.690;2023-08-12T00:00:26;20.37;78.65
68609;SHT31;55581;46.718;7.690;2023-08-12T00:02:51;20.41;78.34
68609;SHT31;55581;46.718;7.690;2023-08-12T00:05:17;20.43;78.25
68609;SHT31;55581;46.718;7.690;2023-08-12T00:07:42;20.40;78.46
68609;SHT31;55581;46.718;7.690;2023-08-12T00:10:13;20.44;78.20
68609;SHT31;55581;46.718;7.690;2023-08-12T00:12:39;20.44;78.39
68609;SHT31;55581;46.718;7.690;2023-08-12T00:15:05;20.44;78.31
68609;SHT31;55581;46.718;7.690;2023-08-12T00:17:34;20.45;78.26
68609;SHT31;55581;46.718;7.690;2023-08-12T00:20:01;20.54;78.04
68609;SHT31;55581;46.718;7.690;2023-08-12T00:22:30;20.50;77.95
68609;SHT31;55581;46.718;7.690;2023-08-12T00:24:56;20.47;78.43
68609;SHT31;55581;46.718;7.690;2023-08-12T00:27:23;20.37;78.38
68609;SHT31;55581;46.718;7.690;2023-08-12T00:29:49;20.39;78.46
68609;SHT31;55581;46.718;7.690;2023-08-12T00:32:14;20.33;78.76
68609;SHT31;55581;46.718;7.690;2023-08-12T00:34:39;20.34;78.83
68609;SHT31;55581;46.718;7.690;2023-08-12T00:37:05;20.37;78.87
68609;SHT31;55581;46.718;7.690;2023-08-12T00:39:30;20.34;79.07
68609;SHT31;55581;46.718;7.690;2023-08-12T00:41:56;20.36;78.82
68609;SHT31;55581;46.718;7.690;2023-08-12T00:44:21;20.47;77.76
68609;SHT31;55581;46.718;7.690;2023-08-12T00:46:47;20.61;77.53
68609;SHT31;55581;46.718;7.690;2023-08-12T00:49:14;20.60;77.65
68609;SHT31;55581;46.718;7.690;2023-08-12T00:51:41;20.57;77.46
68609;SHT31;55581;46.718;7.690;2023-08-12T00:54:13;20.64;76.78
68609;SHT31;55581;46.718;7.690;2023-08-12T00:56:39;20.89;75.08
68609;SHT31;55581;46.718;7.690;2023-08-12T00:59:07;21.06;74.46
68609;SHT31;55581;46.718;7.690;2023-08-12T01:01:33;21.15;74.29
68609;SHT31;55581;46.718;7.690;2023-08-12T01:03:59;21.16;74.37
68609;SHT31;55581;46.718;7.690;2023-08-12T01:06:24;21.19;74.16
68609;SHT31;55581;46.718;7.690;2023-08-12T01:08:50;21.23;73.65
68609;SHT31;55581;46.718;7.690;2023-08-12T01:11:36;21.34;73.45
68609;SHT31;55581;46.718;7.690;2023-08-12T01:14:23;21.47;72.70
68609;SHT31;55581;46.718;7.690;2023-08-12T01:16:57;21.42;74.46
68609;SHT31;55581;46.718;7.690;2023-08-12T01:19:34;21.30;74.22
68609;SHT31;55581;46.718;7.690;2023-08-12T01:22:01;21.32;73.95
68609;SHT31;55581;46.718;7.690;2023-08-12T01:24:27;21.36;73.86
68609;SHT31;55581;46.718;7.690;2023-08-12T01:26:59;21.33;74.00
68609;SHT31;55581;46.718;7.690;2023-08-12T01:29:25;21.30;74.33
68609;SHT31;55581;46.718;7.690;2023-08-12T01:31:55;21.34;75.03
68609;SHT31;55581;46.718;7.690;2023-08-12T01:34:28;21.29;76.01
68609;SHT31;55581;46.718;7.690;2023-08-12T01:36:58;21.32;76.37
68609;SHT31;55581;46.718;7.690;2023-08-12T01:39:26;21.23;76.83
68609;SHT31;55581;46.718;7.690;2023-08-12T01:41:52;21.22;78.04
68609;SHT31;55581;46.718;7.690;2023-08-12T01:44:20;21.20;78.69
68609;SHT31;55581;46.718;7.690;2023-08-12T01:46:46;21.00;79.60
68609;SHT31;55581;46.718;7.690;2023-08-12T01:49:12;20.91;80.00
68609;SHT31;55581;46.718;7.690;2023-08-12T01:51:38;20.84;80.20
68609;SHT31;55581;46.718;7.690;2023-08-12T01:54:03;20.84;79.81
68609;SHT31;55581;46.718;7.690;2023-08-12T01:56:29;20.82;79.67
68609;SHT31;55581;46.718;7.690;2023-08-12T01:58:54;20.79;79.66
68609;SHT31;55581;46.718;7.690;2023-08-12T02:01:20;20.70;79.64
68609;SHT31;55581;46.718;7.690;2023-08-12T02:03:45;20.61;79.95
68609;SHT31;55581;46.718;7.690;2023-08-12T02:06:10;20.51;79.91
68609;SHT31;55581;46.718;7.690;2023-08-12T02:08:36;20.47;80.48
68609;SHT31;55581;46.718;7.690;2023-08-12T02:11:02;20.47;80.00
68609;SHT31;55581;46.718;7.690;2023-08-12T02:13:27;20.45;79.32
68609;SHT31;55581;46.718;7.690;2023-08-12T02:15:53;20.47;79.45
68609;SHT31;55581;46.718;7.690;2023-08-12T02:18:18;20.44;79.53
68609;SHT31;55581;46.718;7.690;2023-08-12T02:20:46;20.44;79.13
68609;SHT31;55581;46.718;7.690;2023-08-12T02:23:11;20.43;79.44
68609;SHT31;55581;46.718;7.690;2023-08-12T02:25:37;20.44;79.53
68609;SHT31;55581;46.718;7.690;2023-08-12T02:28:03;20.40;80.24
68609;SHT31;55581;46.718;7.690;2023-08-12T02:30:29;20.39;80.26
68609;SHT31;55581;46.718;7.690;2023-08-12T02:32:55;20.37;80.59
68609;SHT31;55581;46.718;7.690;2023-08-12T02:35:22;20.37;80.93
68609;SHT31;55581;46.718;7.690;2023-08-12T02:37:48;20.37;80.84
68609;SHT31;55581;46.718;7.690;2023-08-12T02:40:14;20.52;80.63
68609;SHT31;55581;46.718;7.690;2023-08-12T02:42:40;20.61;80.56
68609;SHT31;55581;46.718;7.690;2023-08-12T02:45:06;20.64;80.37
68609;SHT31;55581;46.718;7.690;2023-08-12T02:47:31;20.54;80.78
68609;SHT31;55581;46.718;7.690;2023-08-12T02:49:57;20.47;80.90
68609;SHT31;55581;46.718;7.690;2023-08-12T02:52:22;20.41;81.18
68609;SHT31;55581;46.718;7.690;2023-08-12T02:54:48;20.34;80.88
68609;SHT31;55581;46.718;7.690;2023-08-12T02:57:13;20.32;80.92
68609;SHT31;55581;46.718;7.690;2023-08-12T02:59:41;20.40;80.86
68609;SHT31;55581;46.718;7.690;2023-08-12T03:02:07;20.47;80.27
68609;SHT31;55581;46.718;7.690;2023-08-12T03:04:32;20.58;79.76
68609;SHT31;55581;46.718;7.690;2023-08-12T03:07:01;20.60;80.40
68609;SHT31;55581;46.718;7.690;2023-08-12T03:09:26;20.61;80.76
68609;SHT31;55581;46.718;7.690;2023-08-12T03:11:52;20.58;81.12
68609;SHT31;55581;46.718;7.690;2023-08-12T03:14:17;20.55;81.41
68609;SHT31;55581;46.718;7.690;2023-08-12T03:16:45;20.45;81.55
68609;SHT31;55581;46.718;7.690;2023-08-12T03:19:13;20.41;82.13
68609;SHT31;55581;46.718;7.690;2023-08-12T03:21:38;20.40;82.03
68609;SHT31;55581;46.718;7.690;2023-08-12T03:24:04;20.37;81.90
68609;SHT31;55581;46.718;7.690;2023-08-12T03:26:30;20.33;81.85
68609;SHT31;55581;46.718;7.690;2023-08-12T03:28:55;20.29;81.82
68609;SHT31;55581;46.718;7.690;2023-08-12T03:31:20;20.33;81.62
68609;SHT31;55581;46.718;7.690;2023-08-12T03:33:46;20.26;81.89
68609;SHT31;55581;46.718;7.690;2023-08-12T03:36:11;20.19;83.44
68609;SHT31;55581;46.718;7.690;2023-08-12T03:38:37;20.12;82.94
68609;SHT31;55581;46.718;7.690;2023-08-12T03:41:03;20.05;82.99
68609;SHT31;55581;46.718;7.690;2023-08-12T03:43:28;20.02;83.55
68609;SHT31;55581;46.718;7.690;2023-08-12T03:45:56;20.00;83.79
68609;SHT31;55581;46.718;7.690;2023-08-12T03:48:21;20.10;84.46
68609;SHT31;55581;46.718;7.690;2023-08-12T03:50:47;20.13;84.46
68609;SHT31;55581;46.718;7.690;2023-08-12T03:53:13;20.19;84.37
68609;SHT31;55581;46.718;7.690;2023-08-12T03:55:39;20.16;84.34
68609;SHT31;55581;46.718;7.690;2023-08-12T03:58:04;20.10;84.67
68609;SHT31;55581;46.718;7.690;2023-08-12T04:00:30;20.04;85.00
68609;SHT31;55581;46.718;7.690;2023-08-12T04:02:56;19.93;84.03
68609;SHT31;55581;46.718;7.690;2023-08-12T04:05:21;19.85;84.15
68609;SHT31;55581;46.718;7.690;2023-08-12T04:07:47;19.86;84.15
68609;SHT31;55581;46.718;7.690;2023-08-12T04:10:12;19.85;84.13
68609;SHT31;55581;46.718;7.690;2023-08-12T04:12:37;19.86;84.30
68609;SHT31;55581;46.718;7.690;2023-08-12T04:15:04;19.89;84.49
68609;SHT31;55581;46.718;7.690;2023-08-12T04:17:31;19.89;84.85
68609;SHT31;55581;46.718;7.690;2023-08-12T04:19:57;19.89;84.65
68609;SHT31;55581;46.718;7.690;2023-08-12T04:22:22;19.83;83.78
68609;SHT31;55581;46.718;7.690;2023-08-12T04:24:48;19.81;83.94
68609;SHT31;55581;46.718;7.690;2023-08-12T04:27:14;19.83;83.91
68609;SHT31;55581;46.718;7.690;2023-08-12T04:29:41;19.82;83.85
68609;SHT31;55581;46.718;7.690;2023-08-12T04:32:12;19.83;83.06
68609;SHT31;55581;46.718;7.690;2023-08-12T04:34:37;19.82;83.79
68609;SHT31;55581;46.718;7.690;2023-08-12T04:37:04;19.81;84.62
68609;SHT31;55581;46.718;7.690;2023-08-12T04:39:29;19.85;84.58
68609;SHT31;55581;46.718;7.690;2023-08-12T04:41:57;19.90;84.21
68609;SHT31;55581;46.718;7.690;2023-08-12T04:44:23;19.85;84.27
68609;SHT31;55581;46.718;7.690;2023-08-12T04:46:48;19.92;82.91
68609;SHT31;55581;46.718;7.690;2023-08-12T04:49:14;19.89;83.28
68609;SHT31;55581;46.718;7.690;2023-08-12T04:51:39;19.93;83.97
68609;SHT31;55581;46.718;7.690;2023-08-12T04:54:05;19.97;84.01
68609;SHT31;55581;46.718;7.690;2023-08-12T04:56:32;20.00;83.84
68609;SHT31;55581;46.718;7.690;2023-08-12T04:58:58;20.00;82.51
68609;SHT31;55581;46.718;7.690;2023-08-12T05:01:23;19.99;82.56
68609;SHT31;55581;46.718;7.690;2023-08-12T05:03:48;20.06;82.04
68609;SHT31;55581;46.718;7.690;2023-08-12T05:06:14;20.12;82.68
68609;SHT31;55581;46.718;7.690;2023-08-12T05:08:41;20.17;83.24
68609;SHT31;55581;46.718;7.690;2023-08-12T05:11:07;20.22;84.02
68609;SHT31;55581;46.718;7.690;2023-08-12T05:13:32;20.26;83.87
68609;SHT31;55581;46.718;7.690;2023-08-12T05:15:58;20.33;84.16
68609;SHT31;55581;46.718;7.690;2023-08-12T05:18:23;20.39;83.95
68609;SHT31;55581;46.718;7.690;2023-08-12T05:20:51;20.32;83.86
68609;SHT31;55581;46.718;7.690;2023-08-12T05:23:16;20.27;84.01
68609;SHT31;55581;46.718;7.690;2023-08-12T05:25:42;20.26;83.59
68609;SHT31;55581;46.718;7.690;2023-08-12T05:28:07;20.29;83.34
68609;SHT31;55581;46.718;7.690;2023-08-12T05:30:33;20.36;81.79
68609;SHT31;55581;46.718;7.690;2023-08-12T05:32:59;20.43;80.08
68609;SHT31;55581;46.718;7.690;2023-08-12T05:35:24;20.52;79.30
68609;SHT31;55581;46.718;7.690;2023-08-12T05:37:50;20.74;77.12
68609;SHT31;55581;46.718;7.690;2023-08-12T05:40:15;20.82;77.52
68609;SHT31;55581;46.718;7.690;2023-08-12T05:42:41;20.82;77.99
68609;SHT31;55581;46.718;7.690;2023-08-12T05:45:09;20.79;79.30
68609;SHT31;55581;46.718;7.690;2023-08-12T05:47:36;20.79;79.78
68609;SHT31;55581;46.718;7.690;2023-08-12T05:50:01;20.75;79.61
68609;SHT31;55581;46.718;7.690;2023-08-12T05:52:27;20.79;79.62
68609;SHT31;55581;46.718;7.690;2023-08-12T05:54:55;20.75;80.81
68609;SHT31;55581;46.718;7.690;2023-08-12T05:57:23;20.75;82.36
68609;SHT31;55581;46.718;7.690;2023-08-12T05:59:48;20.63;82.62
68609;SHT31;55581;46.718;7.690;2023-08-12T06:02:14;20.60;83.23
68609;SHT31;55581;46.718;7.690;2023-08-12T06:04:39;20.51;83.37
68609;SHT31;55581;46.718;7.690;2023-08-12T06:07:05;20.52;83.61
68609;SHT31;55581;46.718;7.690;2023-08-12T06:09:31;20.52;85.19
68609;SHT31;55581;46.718;7.690;2023-08-12T06:11:56;20.63;84.63
68609;SHT31;55581;46.718;7.690;2023-08-12T06:14:22;20.72;84.52
68609;SHT31;55581;46.718;7.690;2023-08-12T06:16:49;20.71;83.38
68609;SHT31;55581;46.718;7.690;2023-08-12T06:19:14;20.77;83.89
68609;SHT31;55581;46.718;7.690;2023-08-12T06:21:43;20.82;84.18
68609;SHT31;55581;46.718;7.690;2023-08-12T06:24:08;20.78;84.89
68609;SHT31;55581;46.718;7.690;2023-08-12T06:26:36;20.87;85.04
68609;SHT31;55581;46.718;7.690;2023-08-12T06:29:03;20.89;82.93
68609;SHT31;55581;46.718;7.690;2023-08-12T06:31:29;20.85;80.94
68609;SHT31;55581;46.718;7.690;2023-08-12T06:33:54;20.77;83.05
68609;SHT31;55581;46.718;7.690;2023-08-12T06:36:19;20.57;83.22
68609;SHT31;55581;46.718;7.690;2023-08-12T06:38:45;20.52;78.58
68609;SHT31;55581;46.718;7.690;2023-08-12T06:41:12;20.45;85.44
68609;SHT31;55581;46.718;7.690;2023-08-12T06:43:37;20.47;86.22
68609;SHT31;55581;46.718;7.690;2023-08-12T06:46:02;20.16;87.23
68609;SHT31;55581;46.718;7.690;2023-08-12T06:48:28;19.99;88.29
68609;SHT31;55581;46.718;7.690;2023-08-12T06:50:54;19.95;88.29
68609;SHT31;55581;46.718;7.690;2023-08-12T06:53:20;19.96;87.96
68609;SHT31;55581;46.718;7.690;2023-08-12T06:55:46;20.12;88.55
68609;SHT31;55581;46.718;7.690;2023-08-12T06:58:13;20.15;88.63
68609;SHT31;55581;46.718;7.690;2023-08-12T07:00:39;20.19;88.27
68609;SHT31;55581;46.718;7.690;2023-08-12T07:03:04;20.23;89.12
68609;SHT31;55581;46.718;7.690;2023-08-12T07:05:33;20.26;88.83
68609;SHT31;55581;46.718;7.690;2023-08-12T07:08:01;20.33;88.68
68609;SHT31;55581;46.718;7.690;2023-08-12T07:10:27;20.40;87.31
68609;SHT31;55581;46.718;7.690;2023-08-12T07:12:52;20.43;88.39
68609;SHT31;55581;46.718;7.690;2023-08-12T07:15:17;20.45;89.05
68609;SHT31;55581;46.718;7.690;2023-08-12T07:17:43;20.51;89.70
68609;SHT31;55581;46.718;7.690;2023-08-12T07:20:08;20.63;89.18
68609;SHT31;55581;46.718;7.690;2023-08-12T07:22:35;20.72;87.42
68609;SHT31;55581;46.718;7.690;2023-08-12T07:25:00;20.78;89.52
68609;SHT31;55581;46.718;7.690;2023-08-12T07:27:27;20.84;87.94
68609;SHT31;55581;46.718;7.690;2023-08-12T07:29:52;20.88;89.13
68609;SHT31;55581;46.718;7.690;2023-08-12T07:32:18;21.00;88.59
68609;SHT31;55581;46.718;7.690;2023-08-12T07:34:46;21.10;86.81
68609;SHT31;55581;46.718;7.690;2023-08-12T07:37:13;21.05;88.44
68609;SHT31;55581;46.718;7.690;2023-08-12T07:39:39;21.13;89.46
68609;SHT31;55581;46.718;7.690;2023-08-12T07:42:05;21.20;89.03
68609;SHT31;55581;46.718;7.690;2023-08-12T07:44:31;21.18;88.65
68609;SHT31;55581;46.718;7.690;2023-08-12T07:46:56;21.25;87.94
68609;SHT31;55581;46.718;7.690;2023-08-12T07:49:22;21.33;86.88
68609;SHT31;55581;46.718;7.690;2023-08-12T07:51:48;21.44;89.52
68609;SHT31;55581;46.718;7.690;2023-08-12T07:54:13;21.58;89.04
68609;SHT31;55581;46.718;7.690;2023-08-12T07:56:40;21.73;86.04
68609;SHT31;55581;46.718;7.690;2023-08-12T07:59:06;21.78;83.66
68609;SHT31;55581;46.718;7.690;2023-08-12T08:01:31;21.87;86.99
68609;SHT31;55581;46.718;7.690;2023-08-12T08:03:57;22.02;86.52
68609;SHT31;55581;46.718;7.690;2023-08-12T08:06:23;22.08;80.88
68609;SHT31;55581;46.718;7.690;2023-08-12T08:08:49;22.22;83.97
68609;SHT31;55581;46.718;7.690;2023-08-12T08:11:14;22.19;84.35
68609;SHT31;55581;46.718;7.690;2023-08-12T08:13:40;22.28;83.39
68609;SHT31;55581;46.718;7.690;2023-08-12T08:16:05;22.29;84.80
68609;SHT31;55581;46.718;7.690;2023-08-12T08:18:31;22.25;84.75
68609;SHT31;55581;46.718;7.690;2023-08-12T08:20:56;22.32;85.75
68609;SHT31;55581;46.718;7.690;2023-08-12T08:23:24;22.65;85.23
68609;SHT31;55581;46.718;7.690;2023-08-12T08:25:50;22.75;82.20
68609;SHT31;55581;46.718;7.690;2023-08-12T08:28:15;22.71;80.62
68609;SHT31;55581;46.718;7.690;2023-08-12T08:30:40;22.80;81.02
68609;SHT31;55581;46.718;7.690;2023-08-12T08:33:08;22.47;81.39
68609;SHT31;55581;46.718;7.690;2023-08-12T08:35:34;22.63;80.52
68609;SHT31;55581;46.718;7.690;2023-08-12T08:37:59;22.67;82.31
68609;SHT31;55581;46.718;7.690;2023-08-12T08:40:26;22.64;82.09
68609;SHT31;55581;46.718;7.690;2023-08-12T08:42:53;22.68;83.23
68609;SHT31;55581;46.718;7.690;2023-08-12T08:45:21;22.49;81.70
68609;SHT31;55581;46.718;7.690;2023-08-12T08:47:47;22.32;81.94
68609;SHT31;55581;46.718;7.690;2023-08-12T08:50:16;22.19;81.52
68609;SHT31;55581;46.718;7.690;2023-08-12T08:52:42;22.09;82.98
68609;SHT31;55581;46.718;7.690;2023-08-12T08:55:09;21.94;83.94
68609;SHT31;55581;46.718;7.690;2023-08-12T08:57:37;21.82;86.04
68609;SHT31;55581;46.718;7.690;2023-08-12T09:00:06;21.74;86.30
68609;SHT31;55581;46.718;7.690;2023-08-12T09:02:36;21.63;84.11
68609;SHT31;55581;46.718;7.690;2023-08-12T09:05:02;21.60;84.16
68609;SHT31;55581;46.718;7.690;2023-08-12T09:07:29;21.53;86.03
68609;SHT31;55581;46.718;7.690;2023-08-12T09:10:00;21.32;87.24
68609;SHT31;55581;46.718;7.690;2023-08-12T09:12:29;21.33;86.92
68609;SHT31;55581;46.718;7.690;2023-08-12T09:14:59;21.47;87.11
68609;SHT31;55581;46.718;7.690;2023-08-12T09:17:24;21.51;85.51
68609;SHT31;55581;46.718;7.690;2023-08-12T09:19:50;21.64;85.87
68609;SHT31;55581;46.718;7.690;2023-08-12T09:22:18;21.75;84.75
68609;SHT31;55581;46.718;7.690;2023-08-12T09:24:43;21.81;82.94
68609;SHT31;55581;46.718;7.690;2023-08-12T09:27:10;21.73;84.30
68609;SHT31;55581;46.718;7.690;2023-08-12T09:29:36;21.51;86.36
68609;SHT31;55581;46.718;7.690;2023-08-12T09:32:17;21.20;87.38
68609;SHT31;55581;46.718;7.690;2023-08-12T09:34:50;20.84;89.00
68609;SHT31;55581;46.718;7.690;2023-08-12T09:37:17;20.92;88.08
68609;SHT31;55581;46.718;7.690;2023-08-12T09:39:44;21.03;87.20
68609;SHT31;55581;46.718;7.690;2023-08-12T09:42:11;21.22;89.39
68609;SHT31;55581;46.718;7.690;2023-08-12T09:44:42;21.53;89.76
68609;SHT31;55581;46.718;7.690;2023-08-12T09:47:08;21.81;87.12
68609;SHT31;55581;46.718;7.690;2023-08-12T09:49:36;22.08;88.32
68609;SHT31;55581;46.718;7.690;2023-08-12T09:52:04;22.47;87.36
68609;SHT31;55581;46.718;7.690;2023-08-12T09:54:34;22.67;82.87
68609;SHT31;55581;46.718;7.690;2023-08-12T09:57:04;22.75;84.43
68609;SHT31;55581;46.718;7.690;2023-08-12T09:59:33;23.12;84.00
68609;SHT31;55581;46.718;7.690;2023-08-12T10:02:06;23.11;81.50
68609;SHT31;55581;46.718;7.690;2023-08-12T10:04:40;23.35;81.01
68609;SHT31;55581;46.718;7.690;2023-08-12T10:07:09;23.14;80.33
68609;SHT31;55581;46.718;7.690;2023-08-12T10:09:36;22.97;80.73
68609;SHT31;55581;46.718;7.690;2023-08-12T10:12:03;22.90;83.10
68609;SHT31;55581;46.718;7.690;2023-08-12T10:14:31;22.94;83.55
68609;SHT31;55581;46.718;7.690;2023-08-12T10:17:02;23.01;82.85
68609;SHT31;55581;46.718;7.690;2023-08-12T10:19:28;23.08;79.28
68609;SHT31;55581;46.718;7.690;2023-08-12T10:21:56;23.26;81.46
68609;SHT31;55581;46.718;7.690;2023-08-12T10:24:28;23.28;77.09
68609;SHT31;55581;46.718;7.690;2023-08-12T10:26:56;23.46;79.75
68609;SHT31;55581;46.718;7.690;2023-08-12T10:29:24;23.60;77.47
68609;SHT31;55581;46.718;7.690;2023-08-12T10:31:50;23.88;76.51
68609;SHT31;55581;46.718;7.690;2023-08-12T10:34:22;23.78;78.27
68609;SHT31;55581;46.718;7.690;2023-08-12T10:36:55;23.85;79.46
68609;SHT31;55581;46.718;7.690;2023-08-12T10:39:30;23.98;78.32
68609;SHT31;55581;46.718;7.690;2023-08-12T10:41:59;24.32;76.01
68609;SHT31;55581;46.718;7.690;2023-08-12T10:44:40;24.33;76.55
68609;SHT31;55581;46.718;7.690;2023-08-12T10:47:14;24.22;74.80
68609;SHT31;55581;46.718;7.690;2023-08-12T10:49:44;24.46;74.22
68609;SHT31;55581;46.718;7.690;2023-08-12T10:52:33;24.93;72.17
68609;SHT31;55581;46.718;7.690;2023-08-12T10:55:18;25.20;74.43
68609;SHT31;55581;46.718;7.690;2023-08-12T10:57:45;25.21;70.84
68609;SHT31;55581;46.718;7.690;2023-08-12T11:00:13;25.01;69.53
68609;SHT31;55581;46.718;7.690;2023-08-12T11:02:40;24.94;67.26
68609;SHT31;55581;46.718;7.690;2023-08-12T11:05:10;25.10;69.88
68609;SHT31;55581;46.718;7.690;2023-08-12T11:07:39;25.46;68.83
68609;SHT31;55581;46.718;7.690;2023-08-12T11:10:11;25.72;69.83
68609;SHT31;55581;46.718;7.690;2023-08-12T11:13:02;25.97;68.13
68609;SHT31;55581;46.718;7.690;2023-08-12T11:15:43;26.24;70.66
68609;SHT31;55581;46.718;7.690;2023-08-12T11:18:19;26.24;66.70
68609;SHT31;55581;46.718;7.690;2023-08-12T11:20:47;26.34;68.06
68609;SHT31;55581;46.718;7.690;2023-08-12T11:23:13;26.60;67.72
68609;SHT31;55581;46.718;7.690;2023-08-12T11:25:40;26.56;65.02
68609;SHT31;55581;46.718;7.690;2023-08-12T11:28:06;26.55;64.33
68609;SHT31;55581;46.718;7.690;2023-08-12T11:30:32;26.65;64.93
68609;SHT31;55581;46.718;7.690;2023-08-12T11:32:58;26.86;66.25
68609;SHT31;55581;46.718;7.690;2023-08-12T11:35:25;26.85;65.73
68609;SHT31;55581;46.718;7.690;2023-08-12T11:37:55;26.82;63.87
68609;SHT31;55581;46.718;7.690;2023-08-12T11:40:25;26.69;59.00
68609;SHT31;55581;46.718;7.690;2023-08-12T11:42:51;26.63;61.80
68609;SHT31;55581;46.718;7.690;2023-08-12T11:45:19;26.89;61.79
68609;SHT31;55581;46.718;7.690;2023-08-12T11:47:45;27.21;62.44
68609;SHT31;55581;46.718;7.690;2023-08-12T11:50:12;27.42;61.05
68609;SHT31;55581;46.718;7.690;2023-08-12T11:52:39;27.68;59.89
68609;SHT31;55581;46.718;7.690;2023-08-12T11:55:05;27.52;61.58
68609;SHT31;55581;46.718;7.690;2023-08-12T11:57:32;27.59;61.63
68609;SHT31;55581;46.718;7.690;2023-08-12T12:00:07;27.44;57.97
68609;SHT31;55581;46.718;7.690;2023-08-12T12:05:21;27.55;58.09
68609;SHT31;55581;46.718;7.690;2023-08-12T12:07:48;27.95;59.80
68609;SHT31;55581;46.718;7.690;2023-08-12T12:10:20;28.07;60.00
68609;SHT31;55581;46.718;7.690;2023-08-12T12:12:47;28.02;59.35
68609;SHT31;55581;46.718;7.690;2023-08-12T12:15:17;28.09;61.07
68609;SHT31;55581;46.718;7.690;2023-08-12T12:17:47;28.23;60.02
68609;SHT31;55581;46.718;7.690;2023-08-12T12:20:14;28.21;60.86
68609;SHT31;55581;46.718;7.690;2023-08-12T12:22:43;28.30;61.22
68609;SHT31;55581;46.718;7.690;2023-08-12T12:25:11;28.13;63.42
68609;SHT31;55581;46.718;7.690;2023-08-12T12:27:38;28.16;61.07
68609;SHT31;55581;46.718;7.690;2023-08-12T12:30:11;28.18;57.30
68609;SHT31;55581;46.718;7.690;2023-08-12T12:32:37;28.33;56.63
68609;SHT31;55581;46.718;7.690;2023-08-12T12:35:03;28.33;58.08
68609;SHT31;55581;46.718;7.690;2023-08-12T12:37:30;28.45;55.85
68609;SHT31;55581;46.718;7.690;2023-08-12T12:39:57;28.47;53.82
68609;SHT31;55581;46.718;7.690;2023-08-12T12:42:24;28.58;55.32
68609;SHT31;55581;46.718;7.690;2023-08-12T12:44:51;28.76;53.67
68609;SHT31;55581;46.718;7.690;2023-08-12T12:47:17;28.99;54.10
68609;SHT31;55581;46.718;7.690;2023-08-12T12:49:44;29.12;53.96
68609;SHT31;55581;46.718;7.690;2023-08-12T12:52:10;29.00;53.07
68609;SHT31;55581;46.718;7.690;2023-08-12T12:54:35;29.23;56.34
68609;SHT31;55581;46.718;7.690;2023-08-12T12:57:03;29.24;55.57
68609;SHT31;55581;46.718;7.690;2023-08-12T12:59:31;28.85;52.55
68609;SHT31;55581;46.718;7.690;2023-08-12T13:01:59;28.72;52.28
68609;SHT31;55581;46.718;7.690;2023-08-12T13:04:24;28.72;54.16
68609;SHT31;55581;46.718;7.690;2023-08-12T13:06:50;28.65;59.08
68609;SHT31;55581;46.718;7.690;2023-08-12T13:09:15;28.51;63.31
68609;SHT31;55581;46.718;7.690;2023-08-12T13:11:41;28.27;61.94
68609;SHT31;55581;46.718;7.690;2023-08-12T13:14:06;28.24;60.15
68609;SHT31;55581;46.718;7.690;2023-08-12T13:16:34;27.99;61.59
68609;SHT31;55581;46.718;7.690;2023-08-12T13:19:00;28.13;59.50
68609;SHT31;55581;46.718;7.690;2023-08-12T13:21:26;27.93;60.16
68609;SHT31;55581;46.718;7.690;2023-08-12T13:23:53;28.05;60.87
68609;SHT31;55581;46.718;7.690;2023-08-12T13:26:20;28.03;60.06
68609;SHT31;55581;46.718;7.690;2023-08-12T13:28:46;28.09;60.24
68609;SHT31;55581;46.718;7.690;2023-08-12T13:31:12;28.14;60.48
68609;SHT31;55581;46.718;7.690;2023-08-12T13:33:38;28.24;56.93
68609;SHT31;55581;46.718;7.690;2023-08-12T13:36:06;28.61;61.27
68609;SHT31;55581;46.718;7.690;2023-08-12T13:38:33;28.71;60.73
68609;SHT31;55581;46.718;7.690;2023-08-12T13:40:59;28.68;57.12
68609;SHT31;55581;46.718;7.690;2023-08-12T13:43:24;28.51;56.15
68609;SHT31;55581;46.718;7.690;2023-08-12T13:45:51;28.86;56.17
68609;SHT31;55581;46.718;7.690;2023-08-12T13:48:18;29.13;55.10
68609;SHT31;55581;46.718;7.690;2023-08-12T13:50:43;29.29;53.47
68609;SHT31;55581;46.718;7.690;2023-08-12T13:53:09;29.53;53.66
68609;SHT31;55581;46.718;7.690;2023-08-12T13:55:34;29.67;54.50
68609;SHT31;55581;46.718;7.690;2023-08-12T13:58:00;29.53;55.08
68609;SHT31;55581;46.718;7.690;2023-08-12T14:00:25;29.26;56.39
68609;SHT31;55581;46.718;7.690;2023-08-12T14:02:51;29.10;55.50
68609;SHT31;55581;46.718;7.690;2023-08-12T14:05:17;28.80;55.91
68609;SHT31;55581;46.718;7.690;2023-08-12T14:07:43;28.94;53.63
68609;SHT31;55581;46.718;7.690;2023-08-12T14:10:08;28.72;55.71
68609;SHT31;55581;46.718;7.690;2023-08-12T14:12:35;28.50;56.55
68609;SHT31;55581;46.718;7.690;2023-08-12T14:15:02;28.52;56.75
68609;SHT31;55581;46.718;7.690;2023-08-12T14:17:30;28.62;54.90
68609;SHT31;55581;46.718;7.690;2023-08-12T14:19:55;28.69;57.24
68609;SHT31;55581;46.718;7.690;2023-08-12T14:22:21;28.67;56.27
68609;SHT31;55581;46.718;7.690;2023-08-12T14:24:49;28.72;56.08
68609;SHT31;55581;46.718;7.690;2023-08-12T14:27:15;29.02;55.22
68609;SHT31;55581;46.718;7.690;2023-08-12T14:29:42;29.30;54.18
68609;SHT31;55581;46.718;7.690;2023-08-12T14:32:07;29.61;51.35
68609;SHT31;55581;46.718;7.690;2023-08-12T14:34:34;29.58;54.03
68609;SHT31;55581;46.718;7.690;2023-08-12T14:37:02;29.60;53.14
68609;SHT31;55581;46.718;7.690;2023-08-12T14:39:28;29.72;54.72
68609;SHT31;55581;46.718;7.690;2023-08-12T14:41:54;29.84;52.08
68609;SHT31;55581;46.718;7.690;2023-08-12T14:44:19;29.67;52.32
68609;SHT31;55581;46.718;7.690;2023-08-12T14:46:45;29.57;52.06
68609;SHT31;55581;46.718;7.690;2023-08-12T14:49:12;28.99;54.92
68609;SHT31;55581;46.718;7.690;2023-08-12T14:51:37;28.65;55.10
68609;SHT31;55581;46.718;7.690;2023-08-12T14:54:02;28.50;54.31
68609;SHT31;55581;46.718;7.690;2023-08-12T14:56:31;28.31;55.39
68609;SHT31;55581;46.718;7.690;2023-08-12T14:58:57;28.31;55.16
68609;SHT31;55581;46.718;7.690;2023-08-12T15:01:23;28.33;54.65
68609;SHT31;55581;46.718;7.690;2023-08-12T15:03:50;28.34;54.80
68609;SHT31;55581;46.718;7.690;2023-08-12T15:06:15;28.03;59.37
68609;SHT31;55581;46.718;7.690;2023-08-12T15:08:43;27.65;61.58
68609;SHT31;55581;46.718;7.690;2023-08-12T15:11:08;27.23;62.03
68609;SHT31;55581;46.718;7.690;2023-08-12T15:13:34;26.94;61.38
68609;SHT31;55581;46.718;7.690;2023-08-12T15:15:59;26.92;62.53
68609;SHT31;55581;46.718;7.690;2023-08-12T15:18:24;26.86;62.60
68609;SHT31;55581;46.718;7.690;2023-08-12T15:20:52;26.93;61.00
68609;SHT31;55581;46.718;7.690;2023-08-12T15:23:18;26.97;60.71
68609;SHT31;55581;46.718;7.690;2023-08-12T15:25:47;26.99;61.50
68609;SHT31;55581;46.718;7.690;2023-08-12T15:28:19;26.99;61.40
68609;SHT31;55581;46.718;7.690;2023-08-12T15:30:48;26.99;60.73